createdAt,value
2018-07-19T00:01:27.779Z,33.58
2018-07-19T00:03:08.741Z,33.67
2018-07-19T00:04:46.844Z,34.27
2018-07-19T00:06:23.332Z,34.20
2018-07-19T00:08:00.838Z,33.69
2018-07-19T00:09:38.522Z,33.70
2018-07-19T00:11:18.212Z,34.37
2018-07-19T00:12:55.860Z,34.25
2018-07-19T00:14:34.522Z,34.13
2018-07-19T00:16:12.241Z,34.55
2018-07-19T00:17:49.957Z,33.97
2018-07-19T00:19:28.481Z,34.37
2018-07-19T00:21:05.931Z,34.50
2018-07-19T00:22:45.106Z,34.47
2018-07-19T00:24:22.261Z,34.49
2018-07-19T00:25:58.813Z,34.10
2018-07-19T00:27:37.382Z,33.99
2018-07-19T00:29:15.870Z,34.30
2018-07-19T00:30:55.383Z,34.95
2018-07-19T00:32:31.820Z,34.18
2018-07-19T00:34:09.861Z,34.16
2018-07-19T00:35:49.578Z,34.79
2018-07-19T00:37:32.617Z,34.12
2018-07-19T00:39:10.496Z,34.65
2018-07-19T00:40:47.621Z,34.24
2018-07-19T00:42:26.074Z,34.30
2018-07-19T00:44:02.581Z,34.59
2018-07-19T00:45:40.302Z,34.37
2018-07-19T00:47:18.638Z,34.90
2018-07-19T00:48:56.696Z,34.28
2018-07-19T00:50:33.287Z,34.47
2018-07-19T00:52:10.357Z,34.35
2018-07-19T00:53:46.889Z,34.48
2018-07-19T00:55:23.887Z,34.51
2018-07-19T00:57:01.081Z,34.53
2018-07-19T00:58:37.539Z,34.44
2018-07-19T01:00:17.212Z,34.55
2018-07-19T01:01:54.169Z,34.60
2018-07-19T01:03:30.666Z,34.84
2018-07-19T01:05:07.329Z,35.24
2018-07-19T01:06:47.095Z,34.68
2018-07-19T01:08:25.892Z,34.58
2018-07-19T01:10:06.035Z,35.13
2018-07-19T01:11:44.868Z,35.20
2018-07-19T01:13:21.768Z,35.31
2018-07-19T01:15:00.489Z,34.62
2018-07-19T01:17:05.209Z,35.03
2018-07-19T01:18:56.990Z,34.83
2018-07-19T01:20:35.300Z,34.81
2018-07-19T01:22:11.804Z,34.77
2018-07-19T01:23:51.346Z,35.42
2018-07-19T01:25:27.867Z,35.36
2018-07-19T01:27:06.974Z,35.46
2018-07-19T01:28:43.596Z,35.37
2018-07-19T01:30:20.497Z,34.69
2018-07-19T01:31:57.274Z,35.58
2018-07-19T01:33:34.181Z,35.04
2018-07-19T01:35:10.890Z,34.88
2018-07-19T01:36:47.643Z,34.75
2018-07-19T01:38:24.853Z,35.39
2018-07-19T01:40:03.080Z,35.19
2018-07-19T01:42:30.412Z,35.54
2018-07-19T01:44:10.048Z,35.57
2018-07-19T01:45:48.675Z,35.54
2018-07-19T01:47:26.502Z,35.52
2018-07-19T01:49:02.937Z,35.63
2018-07-19T01:50:40.497Z,35.09
2018-07-19T01:52:18.694Z,35.41
2018-07-19T01:53:56.431Z,35.42
2018-07-19T01:55:34.979Z,35.81
2018-07-19T01:57:13.355Z,35.13
2018-07-19T01:58:50.194Z,35.71
2018-07-19T02:00:27.247Z,35.98
2018-07-19T02:02:03.852Z,35.32
2018-07-19T02:03:40.505Z,35.33
2018-07-19T02:05:17.452Z,35.80
2018-07-19T02:06:56.182Z,35.93
2018-07-19T02:08:34.097Z,35.17
2018-07-19T02:10:11.003Z,36.03
2018-07-19T02:11:48.859Z,35.33
2018-07-19T02:13:25.327Z,35.31
2018-07-19T02:15:01.756Z,35.67
2018-07-19T02:16:39.950Z,35.96
2018-07-19T02:18:16.583Z,35.49
2018-07-19T02:19:53.735Z,35.44
2018-07-19T02:21:30.424Z,36.16
2018-07-19T02:23:07.398Z,35.47
2018-07-19T02:24:44.258Z,36.02
2018-07-19T02:26:22.583Z,36.05
2018-07-19T02:27:59.417Z,35.38
2018-07-19T02:29:36.291Z,36.16
2018-07-19T02:31:14.761Z,35.80
2018-07-19T02:32:51.553Z,35.97
2018-07-19T02:34:28.850Z,35.57
2018-07-19T02:36:05.322Z,36.06
2018-07-19T02:37:42.083Z,36.21
2018-07-19T02:39:18.675Z,36.18
2018-07-19T02:40:55.132Z,35.77
2018-07-19T02:42:35.841Z,35.79
2018-07-19T02:44:16.584Z,35.65
2018-07-19T02:45:56.145Z,35.84
2018-07-19T02:47:33.145Z,35.72
2018-07-19T02:49:10.350Z,36.25
2018-07-19T02:50:48.341Z,36.34
2018-07-19T02:52:25.105Z,36.40
2018-07-19T02:54:01.987Z,35.91
2018-07-19T02:55:38.703Z,35.81
2018-07-19T02:57:16.178Z,35.58
2018-07-19T02:58:54.057Z,35.95
2018-07-19T03:00:30.875Z,35.99
2018-07-19T03:02:11.790Z,36.06
2018-07-19T03:03:50.760Z,35.96
2018-07-19T03:05:33.884Z,36.74
2018-07-19T03:07:11.341Z,36.24
2018-07-19T03:08:47.997Z,36.46
2018-07-19T03:10:24.595Z,36.71
2018-07-19T03:12:01.605Z,36.63
2018-07-19T03:13:39.853Z,36.23
2018-07-19T03:16:54.402Z,36.21
2018-07-19T03:18:31.166Z,36.24
2018-07-19T03:20:11.746Z,36.29
2018-07-19T03:21:49.198Z,36.36
2018-07-19T03:23:27.713Z,36.55
2018-07-19T03:25:07.528Z,36.44
2018-07-19T03:26:44.351Z,36.50
2018-07-19T03:28:21.708Z,36.48
2018-07-19T03:29:58.316Z,36.92
2018-07-19T03:31:34.835Z,37.13
2018-07-19T03:33:13.466Z,36.54
2018-07-19T03:34:50.052Z,36.64
2018-07-19T03:36:26.473Z,36.62
2018-07-19T03:38:02.776Z,37.00
2018-07-19T03:39:39.196Z,36.84
2018-07-19T03:41:16.524Z,36.61
2018-07-19T03:42:52.974Z,36.62
2018-07-19T03:44:30.605Z,36.74
2018-07-19T03:46:08.772Z,36.60
2018-07-19T03:47:45.887Z,37.26
2018-07-19T03:49:22.763Z,37.27
2018-07-19T03:51:00.070Z,37.07
2018-07-19T03:52:36.891Z,37.28
2018-07-19T03:54:13.900Z,37.29
2018-07-19T03:55:51.748Z,37.38
2018-07-19T03:57:28.147Z,37.23
2018-07-19T03:59:04.909Z,37.41
2018-07-19T04:00:42.214Z,36.92
2018-07-19T04:02:19.431Z,37.45
2018-07-19T04:03:56.501Z,37.00
2018-07-19T04:05:34.086Z,37.10
2018-07-19T04:07:11.269Z,37.52
2018-07-19T04:08:48.380Z,37.63
2018-07-19T04:10:24.969Z,37.22
2018-07-19T04:12:02.330Z,37.13
2018-07-19T04:13:49.900Z,37.71
2018-07-19T04:15:28.289Z,37.22
2018-07-19T04:17:04.730Z,37.44
2018-07-19T04:18:42.259Z,37.82
2018-07-19T04:20:33.782Z,37.87
2018-07-19T04:22:11.153Z,37.95
2018-07-19T04:23:49.117Z,37.95
2018-07-19T04:25:26.063Z,38.02
2018-07-19T04:27:02.793Z,37.46
2018-07-19T04:28:39.265Z,38.15
2018-07-19T04:30:18.045Z,38.14
2018-07-19T04:31:55.750Z,38.23
2018-07-19T04:33:32.082Z,38.25
2018-07-19T04:35:08.548Z,37.81
2018-07-19T04:36:45.519Z,37.77
2018-07-19T04:38:22.053Z,38.32
2018-07-19T04:39:58.356Z,38.36
2018-07-19T04:41:34.976Z,38.39
2018-07-19T04:43:12.704Z,38.52
2018-07-19T04:44:50.279Z,38.49
2018-07-19T04:46:38.456Z,38.40
2018-07-19T04:48:15.096Z,38.02
2018-07-19T04:49:51.439Z,38.62
2018-07-19T04:51:28.343Z,38.70
2018-07-19T04:53:06.282Z,38.98
2018-07-19T04:54:45.915Z,38.18
2018-07-19T04:56:23.729Z,38.35
2018-07-19T04:58:00.588Z,38.72
2018-07-19T04:59:37.190Z,38.90
2018-07-19T05:01:13.908Z,38.44
2018-07-19T05:02:51.337Z,38.87
2018-07-19T05:04:29.553Z,39.01
2018-07-19T05:06:07.476Z,38.41
2018-07-19T05:07:43.787Z,39.08
2018-07-19T05:09:22.528Z,39.04
2018-07-19T05:11:01.118Z,38.53
2018-07-19T05:12:38.262Z,38.49
2018-07-19T05:14:18.749Z,39.27
2018-07-19T05:15:57.502Z,38.74
2018-07-19T05:17:36.096Z,38.74
2018-07-19T05:19:12.399Z,38.81
2018-07-19T05:20:50.747Z,38.74
2018-07-19T05:22:27.169Z,38.83
2018-07-19T05:24:05.568Z,39.45
2018-07-19T05:25:42.796Z,39.34
2018-07-19T05:27:21.188Z,39.54
2018-07-19T05:28:58.348Z,39.50
2018-07-19T05:30:35.372Z,38.94
2018-07-19T05:32:11.798Z,39.64
2018-07-19T05:33:49.833Z,39.80
2018-07-19T05:35:26.170Z,39.12
2018-07-19T05:37:02.960Z,39.22
2018-07-19T05:38:40.541Z,39.54
2018-07-19T05:40:17.305Z,39.59
2018-07-19T05:41:53.753Z,39.41
2018-07-19T05:43:31.554Z,39.77
2018-07-19T05:45:10.240Z,39.65
2018-07-19T05:46:49.122Z,39.68
2018-07-19T05:48:25.465Z,39.46
2018-07-19T05:50:03.345Z,39.42
2018-07-19T05:51:40.620Z,39.81
2018-07-19T05:53:17.561Z,39.66
2018-07-19T05:54:54.577Z,39.35
2018-07-19T05:56:33.604Z,39.43
2018-07-19T05:58:11.463Z,39.36
2018-07-19T05:59:49.101Z,39.47
2018-07-19T06:01:29.428Z,39.52
2018-07-19T06:03:08.525Z,40.21
2018-07-19T06:04:46.872Z,39.58
2018-07-19T06:06:27.453Z,40.22
2018-07-19T06:08:05.983Z,39.51
2018-07-19T06:09:43.348Z,39.74
2018-07-19T06:11:20.727Z,40.25
2018-07-19T06:12:57.995Z,40.14
2018-07-19T06:14:35.158Z,39.59
2018-07-19T06:16:12.550Z,40.46
2018-07-19T06:17:51.752Z,39.66
2018-07-19T06:19:29.398Z,40.38
2018-07-19T06:21:06.802Z,39.70
2018-07-19T06:22:45.214Z,39.72
2018-07-19T06:24:24.815Z,39.81
2018-07-19T06:26:02.177Z,39.77
2018-07-19T06:27:39.602Z,40.35
2018-07-19T06:29:46.691Z,39.78
2018-07-19T06:31:53.081Z,40.42
2018-07-19T06:33:31.253Z,40.38
2018-07-19T06:35:08.693Z,40.50
2018-07-19T06:36:45.812Z,40.51
2018-07-19T06:38:23.477Z,40.60
2018-07-19T06:40:00.574Z,40.57
2018-07-19T06:41:38.178Z,40.67
2018-07-19T06:43:22.507Z,40.81
2018-07-19T06:44:59.461Z,40.21
2018-07-19T06:46:36.814Z,40.83
2018-07-19T06:48:15.607Z,40.83
2018-07-19T06:49:52.430Z,40.23
2018-07-19T06:51:30.293Z,40.87
2018-07-19T06:53:10.877Z,40.90
2018-07-19T06:54:47.908Z,40.87
2018-07-19T06:56:28.069Z,40.45
2018-07-19T06:58:06.373Z,40.94
2018-07-19T06:59:44.721Z,40.97
2018-07-19T07:01:21.297Z,40.76
2018-07-19T07:02:58.765Z,40.48
2018-07-19T07:04:37.793Z,40.50
2018-07-19T07:06:16.310Z,41.17
2018-07-19T07:07:53.548Z,40.53
2018-07-19T07:09:30.804Z,40.72
2018-07-19T07:11:09.355Z,41.07
2018-07-19T07:12:46.535Z,41.27
2018-07-19T07:14:23.732Z,40.71
2018-07-19T07:16:01.706Z,41.26
2018-07-19T07:17:43.483Z,40.66
2018-07-19T07:19:21.548Z,40.94
2018-07-19T07:20:57.975Z,40.55
2018-07-19T07:22:35.932Z,41.30
2018-07-19T07:24:15.711Z,41.25
2018-07-19T07:25:56.695Z,40.85
2018-07-19T07:27:33.339Z,41.23
2018-07-19T07:29:10.600Z,41.35
2018-07-19T07:30:48.802Z,41.47
2018-07-19T07:32:25.892Z,40.77
2018-07-19T07:34:04.278Z,40.76
2018-07-19T07:35:40.530Z,41.10
2018-07-19T07:37:32.566Z,41.31
2018-07-19T07:39:14.030Z,41.13
2018-07-19T07:40:50.439Z,41.05
2018-07-19T07:42:28.568Z,41.17
2018-07-19T07:44:06.380Z,41.17
2018-07-19T07:45:44.894Z,41.58
2018-07-19T07:47:23.272Z,41.53
2018-07-19T07:49:00.813Z,41.47
2018-07-19T07:50:38.242Z,40.83
2018-07-19T07:52:14.558Z,41.39
2018-07-19T07:53:51.511Z,41.20
2018-07-19T07:55:27.922Z,41.00
2018-07-19T07:57:04.458Z,41.64
2018-07-19T07:58:41.531Z,41.46
2018-07-19T08:00:20.057Z,41.18
2018-07-19T08:01:56.971Z,40.91
2018-07-19T08:03:36.457Z,40.96
2018-07-19T08:05:15.743Z,41.62
2018-07-19T08:06:52.175Z,41.63
2018-07-19T08:08:29.502Z,41.57
2018-07-19T08:10:08.120Z,41.89
2018-07-19T08:11:44.526Z,41.23
2018-07-19T08:13:21.843Z,41.59
2018-07-19T08:15:00.517Z,41.31
2018-07-19T08:16:39.476Z,41.08
2018-07-19T08:18:17.969Z,41.32
2018-07-19T08:19:54.325Z,41.23
2018-07-19T08:21:31.799Z,41.67
2018-07-19T08:23:08.999Z,41.51
2018-07-19T08:24:47.596Z,41.73
2018-07-19T08:26:26.033Z,41.19
2018-07-19T08:28:04.215Z,41.53
2018-07-19T08:29:43.272Z,41.68
2018-07-19T08:31:27.610Z,41.08
2018-07-19T08:33:04.482Z,41.11
2018-07-19T08:34:42.343Z,41.01
2018-07-19T08:36:21.298Z,41.46
2018-07-19T08:37:59.344Z,41.43
2018-07-19T08:39:37.114Z,41.00
2018-07-19T08:41:15.524Z,41.46
2018-07-19T08:42:53.846Z,41.08
2018-07-19T08:44:38.666Z,41.12
2018-07-19T08:46:18.936Z,40.99
2018-07-19T08:47:55.847Z,41.50
2018-07-19T08:49:32.708Z,41.32
2018-07-19T08:51:12.580Z,41.10
2018-07-19T08:52:50.691Z,41.46
2018-07-19T08:54:27.194Z,41.21
2018-07-19T08:56:13.525Z,40.96
2018-07-19T08:57:51.438Z,41.47
2018-07-19T08:59:33.751Z,41.23
2018-07-19T09:01:11.927Z,41.06
2018-07-19T09:02:48.277Z,41.04
2018-07-19T09:04:25.384Z,41.76
2018-07-19T09:06:03.005Z,41.35
2018-07-19T09:07:39.437Z,41.42
2018-07-19T09:09:17.743Z,41.50
2018-07-19T09:10:54.871Z,40.98
2018-07-19T09:12:34.862Z,41.61
2018-07-19T09:14:12.796Z,40.90
2018-07-19T09:15:49.872Z,41.05
2018-07-19T09:17:28.917Z,40.79
2018-07-19T09:19:09.803Z,41.20
2018-07-19T09:20:48.100Z,41.38
2018-07-19T09:22:27.569Z,41.56
2018-07-19T09:24:06.613Z,40.90
2018-07-19T09:25:47.471Z,41.37
2018-07-19T09:27:25.700Z,41.03
2018-07-19T09:29:04.483Z,41.50
2018-07-19T09:30:45.700Z,41.13
2018-07-19T09:32:23.513Z,41.22
2018-07-19T09:34:00.695Z,40.84
2018-07-19T09:35:38.232Z,41.63
2018-07-19T09:37:28.502Z,40.92
2018-07-19T09:39:09.000Z,41.53
2018-07-19T09:43:19.170Z,41.10
2018-07-19T09:44:55.407Z,41.32
2018-07-19T09:46:33.939Z,41.06
2018-07-19T09:48:11.426Z,40.54
2018-07-19T09:49:51.015Z,41.19
2018-07-19T09:51:28.302Z,41.27
2018-07-19T09:53:07.521Z,40.75
2018-07-19T09:54:57.150Z,40.37
2018-07-19T09:56:37.309Z,41.20
2018-07-19T09:58:16.902Z,40.47
2018-07-19T09:59:53.825Z,40.62
2018-07-19T10:01:32.050Z,40.81
2018-07-19T10:03:10.703Z,40.62
2018-07-19T10:04:47.961Z,40.34
2018-07-19T10:06:25.873Z,41.09
2018-07-19T10:08:03.253Z,40.40
2018-07-19T10:09:42.593Z,40.68
2018-07-19T10:11:19.328Z,41.09
2018-07-19T10:12:57.266Z,40.84
2018-07-19T10:14:38.981Z,40.17
2018-07-19T10:16:19.328Z,40.08
2018-07-19T10:17:56.633Z,40.05
2018-07-19T10:19:36.592Z,40.29
2018-07-19T10:21:14.671Z,40.12
2018-07-19T10:22:54.253Z,39.94
2018-07-19T10:24:31.355Z,40.44
2018-07-19T10:26:10.412Z,39.96
2018-07-19T10:27:47.662Z,40.25
2018-07-19T10:29:25.366Z,40.17
2018-07-19T10:31:02.214Z,40.22
2018-07-19T10:32:38.981Z,39.89
2018-07-19T10:34:15.666Z,40.06
2018-07-19T10:35:54.251Z,39.97
2018-07-19T10:37:31.982Z,39.56
2018-07-19T10:39:10.362Z,39.73
2018-07-19T10:42:25.099Z,39.97
2018-07-19T10:44:06.244Z,39.70
2018-07-19T10:45:50.101Z,39.60
2018-07-19T10:47:28.218Z,39.99
2018-07-19T10:49:13.910Z,39.16
2018-07-19T10:50:52.656Z,39.55
2018-07-19T10:52:34.792Z,39.00
2018-07-19T10:54:13.173Z,39.73
2018-07-19T10:55:52.575Z,39.33
2018-07-19T10:57:31.440Z,38.97
2018-07-19T10:59:09.898Z,39.22
2018-07-19T11:00:50.541Z,39.82
2018-07-19T11:02:26.912Z,39.80
2018-07-19T11:04:05.271Z,38.85
2018-07-19T11:05:44.757Z,39.73
2018-07-19T11:07:21.492Z,39.41
2018-07-19T11:09:00.823Z,38.98
2018-07-19T11:10:38.739Z,39.14
2018-07-19T11:12:15.305Z,39.06
2018-07-19T11:13:53.975Z,38.76
2018-07-19T11:15:30.959Z,38.99
2018-07-19T11:17:24.339Z,38.95
2018-07-19T11:19:01.518Z,38.97
2018-07-19T11:20:40.275Z,38.32
2018-07-19T11:22:22.549Z,39.05
2018-07-19T11:23:59.763Z,39.05
2018-07-19T11:25:55.388Z,38.35
2018-07-19T11:27:34.625Z,38.96
2018-07-19T11:29:12.332Z,38.16
2018-07-19T11:30:52.662Z,38.36
2018-07-19T11:32:32.770Z,38.05
2018-07-19T11:34:10.896Z,38.38
2018-07-19T11:35:50.193Z,38.10
2018-07-19T11:37:29.188Z,38.64
2018-07-19T11:39:08.662Z,38.25
2018-07-19T11:40:44.961Z,38.31
2018-07-19T11:42:24.661Z,37.81
2018-07-19T11:44:02.364Z,38.49
2018-07-19T11:45:39.855Z,38.31
2018-07-19T11:47:17.365Z,37.84
2018-07-19T11:48:55.940Z,38.33
2018-07-19T11:50:38.383Z,38.22
2018-07-19T11:52:15.451Z,37.50
2018-07-19T11:53:52.502Z,38.12
2018-07-19T11:55:29.647Z,37.90
2018-07-19T11:57:12.394Z,37.80
2018-07-19T11:58:50.572Z,37.97
2018-07-19T12:00:29.364Z,37.78
2018-07-19T14:10:28.438Z,35.61
2018-07-19T14:12:05.889Z,35.24
2018-07-19T14:13:44.329Z,34.89
2018-07-19T14:15:26.392Z,35.26
2018-07-19T14:17:02.828Z,35.09
2018-07-19T14:18:40.539Z,35.02
2018-07-19T14:22:14.106Z,35.46
2018-07-19T14:23:53.820Z,34.75
2018-07-19T14:25:37.707Z,35.49
2018-07-19T14:27:20.077Z,35.15
2018-07-19T14:32:52.422Z,35.08
2018-07-19T14:34:42.995Z,35.02
2018-07-19T14:36:25.496Z,34.36
2018-07-19T14:38:13.429Z,34.93
2018-07-19T14:40:02.656Z,35.21
2018-07-19T14:41:40.508Z,34.30
2018-07-19T14:43:17.173Z,34.63
2018-07-19T14:44:58.383Z,34.45
2018-07-19T14:46:39.387Z,34.49
2018-07-19T14:48:19.713Z,34.02
2018-07-19T14:50:01.218Z,34.90
2018-07-19T14:51:39.337Z,34.52
2018-07-19T14:53:17.524Z,34.46
2018-07-19T14:54:58.507Z,33.97
2018-07-19T14:56:37.463Z,34.81
2018-07-19T14:58:14.385Z,34.68
2018-07-19T14:59:53.217Z,34.56
2018-07-19T15:01:30.311Z,33.98
2018-07-19T15:03:08.306Z,34.35
2018-07-19T15:04:44.796Z,34.12
2018-07-19T15:06:24.646Z,34.21
2018-07-19T15:08:03.393Z,34.57
2018-07-19T15:09:41.654Z,33.77
2018-07-19T15:11:18.198Z,34.49
2018-07-19T15:12:58.037Z,33.88
2018-07-19T15:14:36.619Z,33.71
2018-07-19T15:16:13.268Z,34.09
2018-07-19T15:17:53.543Z,33.42
2018-07-19T15:19:30.736Z,33.65
2018-07-19T15:21:08.754Z,34.23
2018-07-19T15:22:47.555Z,33.64
2018-07-19T15:24:24.498Z,33.35
2018-07-19T15:26:02.951Z,33.71
2018-07-19T15:27:42.083Z,33.81
2018-07-19T15:29:19.947Z,33.24
2018-07-19T15:31:01.133Z,33.52
2018-07-19T15:32:39.061Z,33.08
2018-07-19T15:34:18.443Z,33.21
2018-07-19T15:35:56.857Z,33.84
2018-07-19T15:37:33.950Z,33.76
2018-07-19T15:39:12.042Z,33.24
2018-07-19T15:41:03.087Z,33.28
2018-07-19T15:42:43.551Z,32.97
2018-07-19T15:44:26.761Z,33.35
2018-07-19T15:46:04.382Z,33.37
2018-07-19T15:48:19.291Z,33.59
2018-07-19T15:50:17.704Z,33.45
2018-07-19T15:58:01.722Z,33.49
2018-07-19T15:59:40.004Z,33.31
2018-07-19T16:01:19.725Z,32.70
2018-07-19T16:02:57.490Z,32.83
2018-07-19T16:06:53.025Z,33.21
2018-07-19T16:08:30.493Z,32.78
2018-07-19T16:10:07.869Z,32.58
2018-07-19T16:11:51.421Z,32.65
2018-07-19T16:13:35.007Z,33.22
2018-07-19T16:15:15.304Z,32.63
2018-07-19T16:16:52.972Z,32.38
2018-07-19T16:18:31.317Z,32.62
2018-07-19T16:20:11.069Z,32.94
2018-07-19T16:21:49.230Z,32.98
2018-07-19T16:23:25.774Z,32.28
2018-07-19T16:25:03.496Z,32.27
2018-07-19T16:26:41.591Z,32.10
2018-07-19T16:28:22.911Z,32.13
2018-07-19T16:29:59.471Z,32.88
2018-07-19T16:31:40.642Z,32.72
2018-07-19T16:33:19.923Z,32.03
2018-07-19T16:34:57.357Z,32.75
2018-07-19T16:37:10.307Z,32.69
2018-07-19T16:38:55.314Z,32.30
2018-07-19T16:40:37.048Z,32.39
2018-07-19T16:42:15.564Z,31.87
2018-07-19T16:43:53.925Z,32.33
2018-07-19T16:45:34.106Z,32.08
2018-07-19T16:47:26.716Z,32.34
2018-07-19T16:49:06.472Z,32.12
2018-07-19T16:51:04.865Z,32.13
2018-07-19T16:52:44.527Z,32.00
2018-07-19T16:54:22.772Z,31.86
2018-07-19T16:55:59.238Z,32.35
2018-07-19T16:57:44.045Z,32.31
2018-07-19T16:59:21.271Z,32.31
2018-07-19T17:01:03.382Z,31.93
2018-07-19T17:02:42.968Z,32.05
2018-07-19T17:04:21.325Z,32.33
2018-07-19T17:05:57.747Z,32.08
2018-07-19T17:07:34.996Z,31.63
2018-07-19T17:09:12.934Z,31.92
2018-07-19T17:10:49.260Z,31.47
2018-07-19T17:12:25.682Z,31.83
2018-07-19T17:14:05.593Z,31.71
2018-07-19T17:15:47.392Z,32.23
2018-07-19T17:17:24.581Z,31.44
2018-07-19T17:19:01.601Z,31.66
2018-07-19T17:20:38.086Z,31.91
2018-07-19T17:22:17.340Z,31.84
2018-07-19T17:23:55.315Z,31.76
2018-07-19T17:25:33.388Z,32.30
2018-07-19T17:27:10.810Z,31.90
2018-07-19T17:28:48.222Z,32.11
2018-07-19T17:30:26.692Z,32.21
2018-07-19T17:32:07.404Z,31.99
2018-07-19T17:33:44.159Z,32.11
2018-07-19T17:35:21.454Z,31.77
2018-07-19T17:36:59.904Z,31.74
2018-07-19T17:38:36.512Z,32.06
2018-07-19T17:40:17.964Z,31.50
2018-07-19T17:42:02.327Z,31.45
2018-07-19T17:43:40.351Z,31.81
2018-07-19T17:45:27.270Z,31.59
2018-07-19T17:47:05.620Z,31.31
2018-07-19T17:48:48.556Z,31.94
2018-07-19T17:50:24.972Z,31.71
2018-07-19T17:52:04.401Z,31.28
2018-07-19T17:53:42.016Z,31.71
2018-07-19T17:55:20.865Z,31.16
2018-07-19T17:57:08.698Z,31.22
2018-07-19T17:58:47.599Z,31.28
2018-07-19T18:00:26.568Z,31.14
2018-07-19T18:02:03.544Z,31.38
2018-07-19T18:03:42.317Z,31.51
2018-07-19T18:05:19.924Z,31.09
2018-07-19T18:06:57.082Z,31.68
2018-07-19T18:08:33.634Z,31.25
2018-07-19T18:10:10.146Z,31.18
2018-07-19T18:11:47.364Z,31.30
2018-07-19T18:13:24.672Z,31.33
2018-07-19T18:15:03.614Z,31.51
2018-07-19T18:16:41.038Z,31.42
2018-07-19T18:18:18.695Z,30.86
2018-07-19T18:19:55.180Z,30.81
2018-07-19T18:21:32.523Z,30.82
2018-07-19T18:23:10.063Z,30.92
2018-07-19T18:24:48.663Z,31.27
2018-07-19T18:26:28.253Z,30.84
2018-07-19T18:28:06.452Z,30.87
2018-07-19T18:29:46.155Z,31.63
2018-07-19T18:31:25.916Z,30.97
2018-07-19T18:33:03.064Z,30.66
2018-07-19T18:34:46.294Z,30.98
2018-07-19T18:36:24.162Z,31.33
2018-07-19T18:38:10.244Z,30.71
2018-07-19T18:39:53.748Z,30.82
2018-07-19T18:41:31.231Z,30.68
2018-07-19T18:43:10.519Z,31.20
2018-07-19T18:44:47.386Z,31.25
2018-07-19T18:46:24.074Z,30.76
2018-07-19T18:48:01.717Z,30.79
2018-07-19T18:49:39.063Z,30.45
2018-07-19T18:51:19.449Z,30.61
2018-07-19T18:53:07.423Z,31.09
2018-07-19T18:54:48.272Z,30.92
2018-07-19T18:56:25.289Z,31.08
2018-07-19T18:58:04.407Z,30.45
2018-07-19T18:59:55.588Z,30.82
2018-07-19T19:05:16.579Z,31.10
2018-07-19T19:06:55.110Z,30.85
2018-07-19T19:08:37.017Z,31.08
2018-07-19T19:10:24.435Z,30.77
2018-07-19T19:12:35.404Z,30.60
2018-07-19T19:14:13.726Z,30.40
2018-07-19T19:15:55.290Z,31.04
2018-07-19T19:17:33.665Z,30.57
2018-07-19T19:19:11.862Z,30.89
2018-07-19T19:20:50.405Z,30.26
2018-07-19T19:22:27.522Z,30.27
2018-07-19T19:24:03.997Z,30.96
2018-07-19T19:25:40.477Z,30.24
2018-07-19T19:27:20.334Z,30.82
2018-07-19T19:28:57.662Z,30.92
2018-07-19T19:30:35.881Z,30.49
2018-07-19T19:32:12.553Z,30.93
2018-07-19T19:33:48.943Z,30.86
2018-07-19T19:35:25.412Z,30.23
2018-07-19T19:37:01.779Z,30.44
2018-07-19T19:38:39.455Z,30.59
2018-07-19T19:40:18.487Z,30.88
2018-07-19T19:41:55.755Z,30.31
2018-07-19T19:43:34.110Z,30.69
2018-07-19T19:45:12.643Z,30.46
2018-07-19T19:46:49.518Z,30.73
2018-07-19T19:48:25.860Z,30.05
2018-07-19T19:50:03.669Z,30.46
2018-07-19T19:51:40.695Z,30.54
2018-07-19T19:53:17.216Z,30.34
2018-07-19T19:54:54.024Z,30.15
2018-07-19T19:56:31.290Z,30.48
2018-07-19T19:58:09.832Z,30.83
2018-07-19T19:59:47.583Z,30.03
2018-07-19T20:01:24.431Z,30.18
2018-07-19T20:03:04.212Z,30.65
2018-07-19T20:04:46.408Z,30.06
2018-07-19T20:06:25.568Z,30.11
2018-07-19T20:08:03.333Z,30.28
2018-07-19T20:09:44.560Z,30.30
2018-07-19T20:11:23.423Z,30.03
2018-07-19T20:13:10.207Z,30.42
2018-07-19T20:14:49.338Z,29.87
2018-07-19T20:16:31.598Z,30.09
2018-07-19T20:18:09.243Z,30.26
2018-07-19T20:19:50.736Z,30.76
2018-07-19T20:21:40.303Z,29.68
2018-07-19T20:23:19.245Z,29.86
2018-07-19T20:24:59.738Z,30.38
2018-07-19T20:26:39.010Z,30.62
2018-07-19T20:28:32.711Z,30.74
2018-07-19T20:30:16.347Z,30.27
2018-07-19T20:32:10.490Z,29.97
2018-07-19T20:33:50.610Z,30.12
2018-07-19T20:35:37.463Z,30.43
2018-07-19T20:37:17.838Z,30.53
2018-07-19T20:38:56.795Z,30.72
2018-07-19T20:40:34.465Z,30.75
2018-07-19T20:42:14.837Z,30.75
2018-07-19T20:43:55.566Z,30.72
2018-07-19T20:45:33.745Z,30.68
2018-07-19T20:47:13.136Z,30.62
2018-07-19T20:48:51.668Z,30.05
2018-07-19T20:50:28.899Z,30.73
2018-07-19T20:52:13.177Z,30.65
2018-07-19T20:53:53.482Z,30.61
2018-07-19T20:55:34.608Z,30.62
2018-07-19T20:57:18.302Z,30.23
2018-07-19T20:58:56.200Z,30.44
2018-07-19T21:00:36.279Z,30.60
2018-07-19T21:03:58.955Z,30.55
2018-07-19T21:05:38.283Z,30.56
2018-07-19T21:07:17.293Z,30.70
2018-07-19T21:09:01.683Z,30.46
2018-07-19T21:10:40.576Z,30.80
2018-07-19T21:12:21.734Z,30.47
2018-07-19T21:14:02.097Z,30.75
2018-07-19T21:15:39.646Z,30.03
2018-07-19T21:17:19.983Z,30.12
2018-07-19T21:19:00.830Z,30.33
2018-07-19T21:20:41.040Z,30.27
2018-07-19T21:22:17.680Z,30.61
2018-07-19T21:23:54.203Z,30.28
2018-07-19T21:25:32.809Z,30.45
2018-07-19T21:27:11.622Z,30.50
2018-07-19T21:28:48.108Z,30.41
2018-07-19T21:30:26.037Z,30.56
2018-07-19T21:32:06.075Z,30.18
2018-07-19T21:33:46.652Z,30.90
2018-07-19T21:35:24.378Z,30.21
2018-07-19T21:37:00.939Z,30.60
2018-07-19T21:38:37.404Z,30.76
2018-07-19T21:40:15.600Z,30.44
2018-07-19T21:42:01.969Z,30.29
2018-07-19T21:43:44.715Z,30.35
2018-07-19T21:45:46.190Z,30.67
2018-07-19T21:47:25.470Z,30.32
2018-07-19T21:49:04.835Z,31.04
2018-07-19T21:50:43.566Z,31.00
2018-07-19T21:52:21.552Z,30.93
2018-07-19T21:54:01.161Z,30.75
2018-07-19T21:55:39.298Z,30.39
2018-07-19T21:57:20.180Z,31.01
2018-07-19T21:58:59.520Z,30.81
2018-07-19T22:00:42.561Z,31.08
2018-07-19T22:02:21.555Z,31.24
2018-07-19T22:04:00.339Z,30.53
2018-07-19T22:05:38.415Z,30.65
2018-07-19T22:07:16.120Z,31.04
2018-07-19T22:08:54.495Z,31.13
2018-07-19T22:10:31.638Z,30.66
2018-07-19T22:12:08.260Z,31.19
2018-07-19T22:13:44.645Z,30.82
2018-07-19T22:15:24.599Z,31.26
2018-07-19T22:18:39.693Z,30.72
2018-07-19T22:20:17.097Z,31.06
2018-07-19T22:21:55.045Z,30.86
2018-07-19T22:23:32.449Z,31.38
2018-07-19T22:25:09.704Z,31.17
2018-07-19T22:26:46.934Z,31.26
2018-07-19T22:28:23.895Z,31.22
2018-07-19T22:30:05.571Z,31.25
2018-07-19T22:31:48.512Z,31.04
2018-07-19T22:33:28.606Z,31.37
2018-07-19T22:35:05.924Z,31.53
2018-07-19T22:36:43.957Z,31.04
2018-07-19T22:38:24.560Z,31.37
2018-07-19T22:40:01.107Z,31.12
2018-07-19T22:41:39.487Z,31.87
2018-07-19T22:44:49.288Z,31.45
2018-07-19T22:46:25.978Z,31.13
2018-07-19T22:48:02.729Z,31.88
2018-07-19T22:49:40.081Z,31.20
2018-07-19T22:51:20.501Z,31.80
2018-07-19T22:52:58.702Z,31.65
2018-07-19T22:54:50.306Z,31.28
2018-07-19T22:56:31.138Z,31.36
2018-07-19T22:58:10.263Z,31.46
2018-07-19T22:59:47.025Z,31.84
2018-07-19T23:01:24.551Z,32.06
2018-07-19T23:03:02.777Z,31.74
2018-07-19T23:04:44.260Z,31.93
2018-07-19T23:06:22.734Z,31.26
2018-07-19T23:07:59.732Z,31.90
2018-07-19T23:09:36.386Z,32.33
2018-07-19T23:11:14.928Z,31.95
2018-07-19T23:12:53.276Z,32.24
2018-07-19T23:14:31.655Z,31.79
2018-07-19T23:16:09.323Z,31.63
2018-07-19T23:17:48.177Z,32.33
2018-07-19T23:19:30.784Z,31.74
2018-07-19T23:21:09.065Z,31.72
2018-07-19T23:22:58.640Z,31.80
2018-07-19T23:24:35.598Z,32.47
2018-07-19T23:26:12.575Z,32.22
2018-07-19T23:27:51.213Z,31.96
2018-07-19T23:29:37.797Z,31.99
2018-07-19T23:31:20.049Z,32.60
2018-07-19T23:32:56.915Z,32.36
2018-07-19T23:34:33.697Z,32.55
2018-07-19T23:36:46.958Z,32.40
2018-07-19T23:38:28.592Z,32.35
2018-07-19T23:40:22.262Z,32.08
2018-07-19T23:42:19.131Z,32.59
2018-07-19T23:43:59.611Z,32.12
2018-07-19T23:45:43.814Z,32.47
2018-07-19T23:47:25.223Z,32.38
2018-07-19T23:49:11.561Z,32.44
2018-07-19T23:50:47.955Z,32.86
2018-07-19T23:52:25.285Z,32.27
2018-07-19T23:54:02.315Z,32.18
2018-07-19T23:55:39.710Z,32.34